Observations

86.9 °F / 30.5 °C
ENE at 17 MPH
73%
77.4°F / 25.2 °C
29.84" (1010 mb)
10 mile(s)
partly cloudy
2020.05.28 0400 UTC

Observations

Surface


Raw METARs

2020/05/28 04:00
PKWA 280400Z AUTO 07015KT 10SM SCT021 SCT039 31/25 A2984 RMK AO2 T03050252

Translated METAR

Kwajalein, Bucholz AAF, Kwajalein KMR ATOL Airport, Marshall Islands (PKWA) 08-43N 167-44E 2M
May 28, 2020 - 12:00 AM EDT / 2020.05.28 0400 UTC
Wind: from the ENE (070 degrees) at 17 MPH (15 KT):0
Visibility: 10 mile(s):0
Sky conditions: partly cloudy
Temperature: 86.9 F (30.5 C)
Heat index: 98.8 F (37.1 C):1
Dew Point: 77.4 F (25.2 C)
Relative Humidity: 73%
Pressure (altimeter): 29.84 in. Hg (1010 hPa)
ob: PKWA 280400Z AUTO 07015KT 10SM SCT021 SCT039 31/25 A2984 RMK AO2 T03050252
cycle: 4



Upper Air


Latest Skew-T

Skew T Diagram

Latest Data File